Map

Track Data

SID SEASON NUMBER BASIN SUBBASIN NAME ISO_TIME NATURE LAT LON WMO_WIND WMO_PRES WMO_AGENCY TRACK_TYPE DIST2LAND LANDFALL IFLAG USA_AGENCY USA_ATCF_ID USA_LAT USA_LON USA_RECORD USA_STATUS USA_WIND USA_PRES USA_SSHS USA_R34_NE USA_R34_SE USA_R34_SW USA_R34_NW USA_R50_NE USA_R50_SE USA_R50_SW USA_R50_NW USA_R64_NE USA_R64_SE USA_R64_SW USA_R64_NW USA_POCI USA_ROCI USA_RMW USA_EYE TOKYO_LAT TOKYO_LON TOKYO_GRADE TOKYO_WIND TOKYO_PRES TOKYO_R50_DIR TOKYO_R50_LONG TOKYO_R50_SHORT TOKYO_R30_DIR TOKYO_R30_LONG TOKYO_R30_SHORT TOKYO_LAND CMA_LAT CMA_LON CMA_CAT CMA_WIND CMA_PRES HKO_LAT HKO_LON HKO_CAT HKO_WIND HKO_PRES NEWDELHI_LAT NEWDELHI_LON NEWDELHI_GRADE NEWDELHI_WIND NEWDELHI_PRES NEWDELHI_CI NEWDELHI_DP NEWDELHI_POCI REUNION_LAT REUNION_LON REUNION_TYPE REUNION_WIND REUNION_PRES REUNION_TNUM REUNION_CI REUNION_RMW REUNION_R34_NE REUNION_R34_SE REUNION_R34_SW REUNION_R34_NW REUNION_R50_NE REUNION_R50_SE REUNION_R50_SW REUNION_R50_NW REUNION_R64_NE REUNION_R64_SE REUNION_R64_SW REUNION_R64_NW BOM_LAT BOM_LON BOM_TYPE BOM_WIND BOM_PRES BOM_TNUM BOM_CI BOM_RMW BOM_R34_NE BOM_R34_SE BOM_R34_SW BOM_R34_NW BOM_R50_NE BOM_R50_SE BOM_R50_SW BOM_R50_NW BOM_R64_NE BOM_R64_SE BOM_R64_SW BOM_R64_NW BOM_ROCI BOM_POCI BOM_EYE BOM_POS_METHOD BOM_PRES_METHOD NADI_LAT NADI_LON NADI_CAT NADI_WIND NADI_PRES WELLINGTON_LAT WELLINGTON_LON WELLINGTON_WIND WELLINGTON_PRES DS824_LAT DS824_LON DS824_STAGE DS824_WIND DS824_PRES TD9636_LAT TD9636_LON TD9636_STAGE TD9636_WIND TD9636_PRES TD9635_LAT TD9635_LON TD9635_WIND TD9635_PRES TD9635_ROCI NEUMANN_LAT NEUMANN_LON NEUMANN_CLASS NEUMANN_WIND NEUMANN_PRES MLC_LAT MLC_LON MLC_CLASS MLC_WIND MLC_PRES USA_GUST BOM_GUST BOM_GUST_PER REUNION_GUST REUNION_GUST_PER USA_SEAHGT USA_SEARAD_NE USA_SEARAD_SE USA_SEARAD_SW USA_SEARAD_NW STORM_SPEED STORM_DIR
1937200N12132 1937 24 WP MM NOT_NAMED 1937-07-19 10:00:00 NR 11.5000 132.300 main 711 679 __________O___ -1 11.5000 132.300 7 8 293
1937200N12132 1937 24 WP MM NOT_NAMED 1937-07-19 12:00:00 NR 11.6069 132.039 main 679 648 __________P___ -1 11.6069 132.039 7 8 293
1937200N12132 1937 24 WP MM NOT_NAMED 1937-07-19 15:00:00 NR 11.7644 131.650 main 649 608 __________P___ -1 11.7644 131.650 7 8 292
1937200N12132 1937 24 WP MM NOT_NAMED 1937-07-19 18:00:00 NR 11.9153 131.273 main 608 567 __________P___ -1 11.9153 131.273 7 8 292
1937200N12132 1937 24 WP MM NOT_NAMED 1937-07-19 21:00:00 NR 12.0560 130.914 main 569 558 __________P___ -1 12.0560 130.914 7 7 292
1937200N12132 1937 24 WP MM NOT_NAMED 1937-07-19 22:00:00 NR 12.1000 130.800 main 558 540 __________O___ -1 12.1000 130.800 3 7 291
1937200N12132 1937 24 WP MM NOT_NAMED 1937-07-20 00:00:00 NR 12.1840 130.579 main 540 511 __________P___ -1 12.1840 130.579 3 7 292
1937200N12132 1937 24 WP MM NOT_NAMED 1937-07-20 03:00:00 NR 12.3099 130.262 main 511 477 __________P___ -1 12.3099 130.262 3 7 293
1937200N12132 1937 24 WP MM NOT_NAMED 1937-07-20 06:00:00 NR 12.4522 129.946 main 477 447 __________P___ -1 12.4522 129.946 3 7 297
1937200N12132 1937 24 WP MM NOT_NAMED 1937-07-20 09:00:00 NR 12.6298 129.616 main 447 438 __________P___ -1 12.6298 129.616 3 8 300
1937200N12132 1937 24 WP MM NOT_NAMED 1937-07-20 10:00:00 NR 12.7000 129.500 main 438 418 __________O___ -1 12.7000 129.500 4 8 302
1937200N12132 1937 24 WP MM NOT_NAMED 1937-07-20 12:00:00 NR 12.8259 129.289 main 418 390 __________P___ -1 12.8259 129.289 4 8 303
1937200N12132 1937 24 WP MM NOT_NAMED 1937-07-20 15:00:00 NR 13.0518 128.954 main 393 358 __________P___ -1 13.0518 128.954 4 9 307
1937200N12132 1937 24 WP MM NOT_NAMED 1937-07-20 18:00:00 NR 13.3476 128.565 main 358 328 __________P___ -1 13.3476 128.565 4 11 309
1937200N12132 1937 24 WP MM NOT_NAMED 1937-07-20 21:00:00 NR 13.7418 128.086 main 328 322 __________P___ -1 13.7418 128.086 4 13 311
1937200N12132 1937 24 WP MM NOT_NAMED 1937-07-20 22:00:00 NR 13.9000 127.900 main 322 303 __________O___ -1 13.9000 127.900 4 16 306
1937200N12132 1937 24 WP MM NOT_NAMED 1937-07-21 00:00:00 NR 14.2163 127.415 main 303 253 __________P___ -1 14.2163 127.415 4 19 305
1937200N12132 1937 24 WP MM NOT_NAMED 1937-07-21 03:00:00 NR 14.7837 126.591 main 257 224 __________P___ -1 14.7837 126.591 4 20 308
1937200N12132 1937 24 WP MM NOT_NAMED 1937-07-21 06:00:00 NR 15.4720 125.751 main 232 225 __________P___ -1 15.4720 125.751 4 22 315
1937200N12132 1937 24 WP MM NOT_NAMED 1937-07-21 09:00:00 NR 16.2939 125.007 main 268 249 __________P___ -1 16.2939 125.007 4 22 321
1937200N12132 1937 24 WP MM NOT_NAMED 1937-07-21 10:00:00 NR 16.6000 124.800 main 247 206 __________O___ -1 16.6000 124.800 4 24 333
1937200N12132 1937 24 WP MM NOT_NAMED 1937-07-21 12:00:00 NR 17.3614 124.446 main 206 180 __________P___ -1 17.3614 124.446 4 26 340
1937200N12132 1937 24 WP MM NOT_NAMED 1937-07-21 15:00:00 NR 18.6272 124.046 main 180 182 __________P___ -1 18.6272 124.046 4 26 347
1937200N12132 1937 24 WP MM NOT_NAMED 1937-07-21 18:00:00 NR 19.8775 123.815 main 230 230 __________P___ -1 19.8775 123.815 4 23 354
1937200N12132 1937 24 WP MM NOT_NAMED 1937-07-21 21:00:00 NR 20.9269 123.771 main 320 309 __________P___ -1 20.9269 123.771 4 20 0
1937200N12132 1937 24 WP MM NOT_NAMED 1937-07-21 22:00:00 NR 21.2000 123.800 main 309 304 __________O___ -1 21.2000 123.800 7 12 13
1937200N12132 1937 24 WP MM NOT_NAMED 1937-07-22 00:00:00 NR 21.5230 123.919 main 313 306 __________P___ -1 21.5230 123.919 7 8 38
1937200N12132 1937 24 WP MM NOT_NAMED 1937-07-22 03:00:00 NR 21.7556 124.265 main 331 331 __________P___ -1 21.7556 124.265 7 8 70
1937200N12132 1937 24 WP MM NOT_NAMED 1937-07-22 06:00:00 NR 21.8019 124.733 main 368 378 __________P___ -1 21.8019 124.733 7 9 88
1937200N12132 1937 24 WP MM NOT_NAMED 1937-07-22 09:00:00 NR 21.7927 125.238 main 416 426 __________P___ -1 21.7927 125.238 7 9 90
1937200N12132 1937 24 WP MM NOT_NAMED 1937-07-22 10:00:00 NR 21.8000 125.400 main 435 435 __________O___ -1 21.8000 125.400 7 8 76
1937200N12132 1937 24 WP MM NOT_NAMED 1937-07-22 12:00:00 NR 21.8875 125.651 main 461 461 __________P___ -1 21.8875 125.651 7 7 68
1937200N12132 1937 24 WP MM NOT_NAMED 1937-07-22 15:00:00 NR 22.0308 126.022 main 487 487 __________P___ -1 22.0308 126.022 7 8 64
1937200N12132 1937 24 WP MM NOT_NAMED 1937-07-22 18:00:00 NR 22.2192 126.392 main 522 522 __________P___ -1 22.2192 126.392 7 8 57
1937200N12132 1937 24 WP MM NOT_NAMED 1937-07-22 21:00:00 NR 22.4871 126.770 main 547 547 __________P___ -1 22.4871 126.770 7 9 51
1937200N12132 1937 24 WP MM NOT_NAMED 1937-07-22 22:00:00 NR 22.6000 126.900 main 551 551 __________O___ -1 22.6000 126.900 7 11 51
1937200N12132 1937 24 WP MM NOT_NAMED 1937-07-23 00:00:00 NR 22.8398 127.240 main 571 577 __________P___ -1 22.8398 127.240 7 13 50
1937200N12132 1937 24 WP MM NOT_NAMED 1937-07-23 03:00:00 NR 23.2803 127.765 main 614 614 __________P___ -1 23.2803 127.765 7 13 43
1937200N12132 1937 24 WP MM NOT_NAMED 1937-07-23 06:00:00 NR 23.8200 128.230 main 641 646 __________P___ -1 23.8200 128.230 7 14 31
1937200N12132 1937 24 WP MM NOT_NAMED 1937-07-23 09:00:00 NR 24.4623 128.544 main 658 666 __________P___ -1 24.4623 128.544 7 14 21
1937200N12132 1937 24 WP MM NOT_NAMED 1937-07-23 10:00:00 NR 24.7000 128.600 main 666 654 __________O___ -1 24.7000 128.600 3 17 359
1937200N12132 1937 24 WP MM NOT_NAMED 1937-07-23 12:00:00 NR 25.2845 128.539 main 654 574 __________P___ -1 25.2845 128.539 3 19 349
1937200N12132 1937 24 WP MM NOT_NAMED 1937-07-23 15:00:00 NR 26.2522 128.272 main 574 499 __________P___ -1 26.2522 128.272 3 20 344
1937200N12132 1937 24 WP MM NOT_NAMED 1937-07-23 18:00:00 NR 27.2028 127.924 main 499 431 __________P___ -1 27.2028 127.924 3 18 342
1937200N12132 1937 24 WP MM NOT_NAMED 1937-07-23 21:00:00 NR 27.9952 127.649 main 436 418 __________P___ -1 27.9952 127.649 3 16 344
1937200N12132 1937 24 WP MM NOT_NAMED 1937-07-23 22:00:00 NR 28.2000 127.600 main 418 394 __________O___ -1 28.2000 127.600 4 9 6
1937200N12132 1937 24 WP MM NOT_NAMED 1937-07-24 00:00:00 NR 28.4386 127.688 main 394 359 __________P___ -1 28.4386 127.688 4 6 38
1937200N12132 1937 24 WP MM NOT_NAMED 1937-07-24 03:00:00 NR 28.6011 127.955 main 359 342 __________P___ -1 28.6011 127.955 4 6 71
1937200N12132 1937 24 WP MM NOT_NAMED 1937-07-24 06:00:00 NR 28.6201 128.297 main 342 328 __________P___ -1 28.6201 128.297 4 6 90
1937200N12132 1937 24 WP MM NOT_NAMED 1937-07-24 09:00:00 NR 28.5984 128.616 main 328 324 __________P___ -1 28.5984 128.616 4 5 93
1937200N12132 1937 24 WP MM NOT_NAMED 1937-07-24 10:00:00 NR 28.6000 128.700 main 324 319 __________O___ -1 28.6000 128.700 4 4 79
1937200N12132 1937 24 WP MM NOT_NAMED 1937-07-24 12:00:00 NR 28.6334 128.821 main 319 305 __________P___ -1 28.6334 128.821 4 3 49
1937200N12132 1937 24 WP MM NOT_NAMED 1937-07-24 15:00:00 NR 28.7492 128.899 main 305 285 __________P___ -1 28.7492 128.899 4 3 10
1937200N12132 1937 24 WP MM NOT_NAMED 1937-07-24 18:00:00 NR 28.9224 128.888 main 285 265 __________P___ -1 28.9224 128.888 4 4 349
1937200N12132 1937 24 WP MM NOT_NAMED 1937-07-24 21:00:00 NR 29.1283 128.826 main 270 260 __________P___ -1 29.1283 128.826 4 4 345
1937200N12132 1937 24 WP MM NOT_NAMED 1937-07-24 22:00:00 NR 29.2000 128.800 main 260 __________O___ -1 29.2000 128.800 4 5 0

Digital Typhoon Data and Search

About IBTrACS Database

This database is a web-friendly format of International Best Track Archive for Climate Stewardship (IBTrACS), a global best track data archive curated by NOAA dating back to 1842.

Updated: 2021-11-26